sensor_id;sensor_type;location;lat;lon;timestamp;P1;durP1;ratioP1;P2;durP2;ratioP2
28523;SDS011;15734;50.904;6.922;2023-05-10T00:00:20;25.20;;;11.55;;
28523;SDS011;15734;50.904;6.922;2023-05-10T00:02:47;29.58;;;12.93;;
28523;SDS011;15734;50.904;6.922;2023-05-10T00:05:13;30.10;;;12.20;;
28523;SDS011;15734;50.904;6.922;2023-05-10T00:07:39;30.55;;;12.60;;
28523;SDS011;15734;50.904;6.922;2023-05-10T00:10:04;31.38;;;12.68;;
28523;SDS011;15734;50.904;6.922;2023-05-10T00:12:30;29.90;;;12.68;;
28523;SDS011;15734;50.904;6.922;2023-05-10T00:14:56;30.02;;;12.65;;
28523;SDS011;15734;50.904;6.922;2023-05-10T00:17:21;30.83;;;13.32;;
28523;SDS011;15734;50.904;6.922;2023-05-10T00:19:47;28.25;;;11.70;;
28523;SDS011;15734;50.904;6.922;2023-05-10T00:22:13;33.42;;;14.35;;
28523;SDS011;15734;50.904;6.922;2023-05-10T00:24:38;40.53;;;13.60;;
28523;SDS011;15734;50.904;6.922;2023-05-10T00:27:04;31.45;;;13.52;;
28523;SDS011;15734;50.904;6.922;2023-05-10T00:29:29;34.28;;;13.60;;
28523;SDS011;15734;50.904;6.922;2023-05-10T00:31:56;39.25;;;15.35;;
28523;SDS011;15734;50.904;6.922;2023-05-10T00:34:22;33.13;;;13.32;;
28523;SDS011;15734;50.904;6.922;2023-05-10T00:36:47;37.83;;;13.95;;
28523;SDS011;15734;50.904;6.922;2023-05-10T00:39:13;35.45;;;14.30;;
28523;SDS011;15734;50.904;6.922;2023-05-10T00:41:38;33.20;;;13.13;;
28523;SDS011;15734;50.904;6.922;2023-05-10T00:44:04;36.42;;;15.73;;
28523;SDS011;15734;50.904;6.922;2023-05-10T00:46:30;30.83;;;13.15;;
28523;SDS011;15734;50.904;6.922;2023-05-10T00:48:56;41.03;;;16.80;;
28523;SDS011;15734;50.904;6.922;2023-05-10T00:51:22;34.83;;;14.50;;
28523;SDS011;15734;50.904;6.922;2023-05-10T00:53:48;41.53;;;15.45;;
28523;SDS011;15734;50.904;6.922;2023-05-10T00:56:15;37.15;;;16.02;;
28523;SDS011;15734;50.904;6.922;2023-05-10T00:58:41;38.03;;;14.38;;
28523;SDS011;15734;50.904;6.922;2023-05-10T01:01:07;39.30;;;15.57;;
28523;SDS011;15734;50.904;6.922;2023-05-10T01:03:34;45.03;;;16.25;;
28523;SDS011;15734;50.904;6.922;2023-05-10T01:06:00;38.85;;;16.77;;
28523;SDS011;15734;50.904;6.922;2023-05-10T01:08:25;41.20;;;15.60;;
28523;SDS011;15734;50.904;6.922;2023-05-10T01:10:52;46.63;;;16.17;;
28523;SDS011;15734;50.904;6.922;2023-05-10T01:13:29;39.47;;;14.40;;
28523;SDS011;15734;50.904;6.922;2023-05-10T01:16:01;38.30;;;14.23;;
28523;SDS011;15734;50.904;6.922;2023-05-10T01:18:27;43.15;;;17.02;;
28523;SDS011;15734;50.904;6.922;2023-05-10T01:21:01;46.20;;;16.50;;
28523;SDS011;15734;50.904;6.922;2023-05-10T01:26:20;53.47;;;16.77;;
28523;SDS011;15734;50.904;6.922;2023-05-10T01:32:02;37.05;;;14.88;;
28523;SDS011;15734;50.904;6.922;2023-05-10T01:34:34;45.15;;;18.20;;
28523;SDS011;15734;50.904;6.922;2023-05-10T01:37:13;43.85;;;16.00;;
28523;SDS011;15734;50.904;6.922;2023-05-10T01:39:54;45.75;;;16.23;;
28523;SDS011;15734;50.904;6.922;2023-05-10T01:42:26;38.60;;;14.57;;
28523;SDS011;15734;50.904;6.922;2023-05-10T01:45:00;36.38;;;13.60;;
28523;SDS011;15734;50.904;6.922;2023-05-10T01:50:10;38.35;;;13.65;;
28523;SDS011;15734;50.904;6.922;2023-05-10T01:52:44;31.83;;;13.85;;
28523;SDS011;15734;50.904;6.922;2023-05-10T01:57:42;35.00;;;13.38;;
28523;SDS011;15734;50.904;6.922;2023-05-10T02:00:09;36.58;;;13.73;;
28523;SDS011;15734;50.904;6.922;2023-05-10T02:02:37;34.88;;;14.25;;
28523;SDS011;15734;50.904;6.922;2023-05-10T02:05:05;33.08;;;14.75;;
28523;SDS011;15734;50.904;6.922;2023-05-10T02:07:33;32.50;;;13.23;;
28523;SDS011;15734;50.904;6.922;2023-05-10T02:10:01;30.48;;;12.60;;
28523;SDS011;15734;50.904;6.922;2023-05-10T02:12:29;37.17;;;14.27;;
28523;SDS011;15734;50.904;6.922;2023-05-10T02:14:59;34.70;;;13.65;;
28523;SDS011;15734;50.904;6.922;2023-05-10T02:17:27;36.20;;;13.60;;
28523;SDS011;15734;50.904;6.922;2023-05-10T02:19:53;36.83;;;14.00;;
28523;SDS011;15734;50.904;6.922;2023-05-10T02:22:20;31.48;;;12.82;;
28523;SDS011;15734;50.904;6.922;2023-05-10T02:24:47;40.45;;;14.20;;
28523;SDS011;15734;50.904;6.922;2023-05-10T02:27:14;38.83;;;13.45;;
28523;SDS011;15734;50.904;6.922;2023-05-10T02:29:42;38.30;;;14.18;;
28523;SDS011;15734;50.904;6.922;2023-05-10T02:32:08;38.92;;;13.55;;
28523;SDS011;15734;50.904;6.922;2023-05-10T02:34:35;43.03;;;14.13;;
28523;SDS011;15734;50.904;6.922;2023-05-10T02:37:01;43.20;;;14.25;;
28523;SDS011;15734;50.904;6.922;2023-05-10T02:39:28;42.72;;;14.77;;
28523;SDS011;15734;50.904;6.922;2023-05-10T02:41:55;38.75;;;13.35;;
28523;SDS011;15734;50.904;6.922;2023-05-10T02:44:21;44.72;;;15.15;;
28523;SDS011;15734;50.904;6.922;2023-05-10T02:46:48;39.22;;;13.70;;
28523;SDS011;15734;50.904;6.922;2023-05-10T02:49:14;40.03;;;14.27;;
28523;SDS011;15734;50.904;6.922;2023-05-10T02:51:41;43.70;;;14.98;;
28523;SDS011;15734;50.904;6.922;2023-05-10T02:54:12;40.50;;;13.38;;
28523;SDS011;15734;50.904;6.922;2023-05-10T02:56:41;42.03;;;15.77;;
28523;SDS011;15734;50.904;6.922;2023-05-10T02:59:11;51.33;;;15.45;;
28523;SDS011;15734;50.904;6.922;2023-05-10T03:01:37;35.03;;;12.68;;
28523;SDS011;15734;50.904;6.922;2023-05-10T03:04:03;36.53;;;14.48;;
28523;SDS011;15734;50.904;6.922;2023-05-10T03:06:29;32.80;;;12.77;;
28523;SDS011;15734;50.904;6.922;2023-05-10T03:08:54;32.40;;;11.98;;
28523;SDS011;15734;50.904;6.922;2023-05-10T03:11:25;36.83;;;12.90;;
28523;SDS011;15734;50.904;6.922;2023-05-10T03:14:04;31.23;;;12.35;;
28523;SDS011;15734;50.904;6.922;2023-05-10T03:17:04;37.72;;;12.30;;
28523;SDS011;15734;50.904;6.922;2023-05-10T03:19:48;35.13;;;12.93;;
28523;SDS011;15734;50.904;6.922;2023-05-10T03:22:32;30.60;;;12.82;;
28523;SDS011;15734;50.904;6.922;2023-05-10T03:25:10;34.63;;;12.38;;
28523;SDS011;15734;50.904;6.922;2023-05-10T03:27:38;33.30;;;12.95;;
28523;SDS011;15734;50.904;6.922;2023-05-10T03:30:07;31.67;;;12.48;;
28523;SDS011;15734;50.904;6.922;2023-05-10T03:32:33;42.53;;;14.40;;
28523;SDS011;15734;50.904;6.922;2023-05-10T03:34:59;36.17;;;13.38;;
28523;SDS011;15734;50.904;6.922;2023-05-10T03:37:25;40.67;;;14.93;;
28523;SDS011;15734;50.904;6.922;2023-05-10T03:39:50;42.72;;;15.50;;
28523;SDS011;15734;50.904;6.922;2023-05-10T03:42:16;42.15;;;14.98;;
28523;SDS011;15734;50.904;6.922;2023-05-10T03:44:42;39.72;;;14.80;;
28523;SDS011;15734;50.904;6.922;2023-05-10T03:47:08;40.92;;;15.88;;
28523;SDS011;15734;50.904;6.922;2023-05-10T03:49:33;37.58;;;14.02;;
28523;SDS011;15734;50.904;6.922;2023-05-10T03:51:59;39.97;;;14.40;;
28523;SDS011;15734;50.904;6.922;2023-05-10T03:54:24;42.05;;;14.32;;
28523;SDS011;15734;50.904;6.922;2023-05-10T03:56:50;40.30;;;15.05;;
28523;SDS011;15734;50.904;6.922;2023-05-10T03:59:16;35.65;;;14.50;;
28523;SDS011;15734;50.904;6.922;2023-05-10T04:01:41;36.95;;;13.82;;
28523;SDS011;15734;50.904;6.922;2023-05-10T04:04:07;35.63;;;14.07;;
28523;SDS011;15734;50.904;6.922;2023-05-10T04:06:32;38.83;;;13.57;;
28523;SDS011;15734;50.904;6.922;2023-05-10T04:08:58;38.28;;;13.68;;
28523;SDS011;15734;50.904;6.922;2023-05-10T04:11:29;36.42;;;14.80;;
28523;SDS011;15734;50.904;6.922;2023-05-10T04:13:54;42.53;;;13.40;;
28523;SDS011;15734;50.904;6.922;2023-05-10T04:16:20;41.55;;;17.27;;
28523;SDS011;15734;50.904;6.922;2023-05-10T04:18:45;48.50;;;17.15;;
28523;SDS011;15734;50.904;6.922;2023-05-10T04:21:14;44.60;;;17.85;;
28523;SDS011;15734;50.904;6.922;2023-05-10T04:23:40;54.97;;;18.02;;
28523;SDS011;15734;50.904;6.922;2023-05-10T04:26:06;54.83;;;18.02;;
28523;SDS011;15734;50.904;6.922;2023-05-10T04:28:31;42.78;;;17.90;;
28523;SDS011;15734;50.904;6.922;2023-05-10T04:31:07;49.25;;;19.45;;
28523;SDS011;15734;50.904;6.922;2023-05-10T04:33:34;46.45;;;18.85;;
28523;SDS011;15734;50.904;6.922;2023-05-10T04:36:00;59.55;;;21.02;;
28523;SDS011;15734;50.904;6.922;2023-05-10T04:38:26;53.30;;;20.05;;
28523;SDS011;15734;50.904;6.922;2023-05-10T04:40:52;67.88;;;21.50;;
28523;SDS011;15734;50.904;6.922;2023-05-10T04:43:18;48.92;;;19.20;;
28523;SDS011;15734;50.904;6.922;2023-05-10T04:45:44;56.38;;;21.23;;
28523;SDS011;15734;50.904;6.922;2023-05-10T04:48:09;55.72;;;21.05;;
28523;SDS011;15734;50.904;6.922;2023-05-10T04:50:35;60.97;;;22.70;;
28523;SDS011;15734;50.904;6.922;2023-05-10T04:53:00;55.38;;;21.80;;
28523;SDS011;15734;50.904;6.922;2023-05-10T04:55:26;57.65;;;21.45;;
28523;SDS011;15734;50.904;6.922;2023-05-10T04:57:52;61.78;;;21.75;;
28523;SDS011;15734;50.904;6.922;2023-05-10T05:00:18;59.40;;;22.55;;
28523;SDS011;15734;50.904;6.922;2023-05-10T05:02:44;51.45;;;20.63;;
28523;SDS011;15734;50.904;6.922;2023-05-10T05:05:10;58.25;;;21.60;;
28523;SDS011;15734;50.904;6.922;2023-05-10T05:07:36;65.00;;;22.13;;
28523;SDS011;15734;50.904;6.922;2023-05-10T05:10:03;58.88;;;21.73;;
28523;SDS011;15734;50.904;6.922;2023-05-10T05:12:33;58.22;;;21.88;;
28523;SDS011;15734;50.904;6.922;2023-05-10T05:14:59;56.33;;;19.00;;
28523;SDS011;15734;50.904;6.922;2023-05-10T05:17:25;54.38;;;20.98;;
28523;SDS011;15734;50.904;6.922;2023-05-10T05:19:50;52.42;;;19.50;;
28523;SDS011;15734;50.904;6.922;2023-05-10T05:22:16;54.95;;;20.98;;
28523;SDS011;15734;50.904;6.922;2023-05-10T05:24:42;48.15;;;18.63;;
28523;SDS011;15734;50.904;6.922;2023-05-10T05:27:07;55.58;;;19.20;;
28523;SDS011;15734;50.904;6.922;2023-05-10T05:29:33;56.08;;;20.48;;
28523;SDS011;15734;50.904;6.922;2023-05-10T05:31:59;52.55;;;18.40;;
28523;SDS011;15734;50.904;6.922;2023-05-10T05:34:24;48.88;;;19.15;;
28523;SDS011;15734;50.904;6.922;2023-05-10T05:36:50;51.80;;;20.45;;
28523;SDS011;15734;50.904;6.922;2023-05-10T05:39:16;44.20;;;18.85;;
28523;SDS011;15734;50.904;6.922;2023-05-10T05:41:42;59.05;;;21.52;;
28523;SDS011;15734;50.904;6.922;2023-05-10T05:44:07;46.97;;;18.80;;
28523;SDS011;15734;50.904;6.922;2023-05-10T05:46:33;45.40;;;17.98;;
28523;SDS011;15734;50.904;6.922;2023-05-10T05:48:58;42.88;;;17.08;;
28523;SDS011;15734;50.904;6.922;2023-05-10T05:51:24;48.42;;;19.20;;
28523;SDS011;15734;50.904;6.922;2023-05-10T05:53:50;50.47;;;18.40;;
28523;SDS011;15734;50.904;6.922;2023-05-10T05:56:15;37.85;;;17.33;;
28523;SDS011;15734;50.904;6.922;2023-05-10T05:58:42;43.40;;;17.95;;
28523;SDS011;15734;50.904;6.922;2023-05-10T06:01:08;47.33;;;18.17;;
28523;SDS011;15734;50.904;6.922;2023-05-10T06:03:34;47.53;;;17.48;;
28523;SDS011;15734;50.904;6.922;2023-05-10T06:05:59;45.55;;;19.95;;
28523;SDS011;15734;50.904;6.922;2023-05-10T06:08:25;40.05;;;17.45;;
28523;SDS011;15734;50.904;6.922;2023-05-10T06:10:50;41.15;;;18.02;;
28523;SDS011;15734;50.904;6.922;2023-05-10T06:13:16;45.33;;;18.05;;
28523;SDS011;15734;50.904;6.922;2023-05-10T06:15:41;48.63;;;18.83;;
28523;SDS011;15734;50.904;6.922;2023-05-10T06:18:07;50.28;;;19.58;;
28523;SDS011;15734;50.904;6.922;2023-05-10T06:20:32;42.70;;;18.70;;
28523;SDS011;15734;50.904;6.922;2023-05-10T06:22:58;45.10;;;19.52;;
28523;SDS011;15734;50.904;6.922;2023-05-10T06:25:24;45.08;;;17.10;;
28523;SDS011;15734;50.904;6.922;2023-05-10T06:27:50;37.17;;;17.23;;
28523;SDS011;15734;50.904;6.922;2023-05-10T06:30:15;44.85;;;17.30;;
28523;SDS011;15734;50.904;6.922;2023-05-10T06:32:41;33.55;;;17.00;;
28523;SDS011;15734;50.904;6.922;2023-05-10T06:35:08;45.70;;;17.52;;
28523;SDS011;15734;50.904;6.922;2023-05-10T06:37:34;46.63;;;18.52;;
28523;SDS011;15734;50.904;6.922;2023-05-10T06:40:00;38.75;;;17.40;;
28523;SDS011;15734;50.904;6.922;2023-05-10T06:42:26;45.85;;;19.20;;
28523;SDS011;15734;50.904;6.922;2023-05-10T06:44:52;47.65;;;19.75;;
28523;SDS011;15734;50.904;6.922;2023-05-10T06:47:18;37.42;;;17.33;;
28523;SDS011;15734;50.904;6.922;2023-05-10T06:49:43;42.00;;;17.13;;
28523;SDS011;15734;50.904;6.922;2023-05-10T06:52:09;40.83;;;16.70;;
28523;SDS011;15734;50.904;6.922;2023-05-10T06:54:34;43.85;;;17.05;;
28523;SDS011;15734;50.904;6.922;2023-05-10T06:57:00;39.78;;;16.40;;
28523;SDS011;15734;50.904;6.922;2023-05-10T06:59:25;44.00;;;17.67;;
28523;SDS011;15734;50.904;6.922;2023-05-10T07:01:51;42.67;;;18.08;;
28523;SDS011;15734;50.904;6.922;2023-05-10T07:04:16;46.22;;;17.92;;
28523;SDS011;15734;50.904;6.922;2023-05-10T07:06:42;44.17;;;15.93;;
28523;SDS011;15734;50.904;6.922;2023-05-10T07:09:08;36.70;;;17.02;;
28523;SDS011;15734;50.904;6.922;2023-05-10T07:11:34;46.35;;;16.83;;
28523;SDS011;15734;50.904;6.922;2023-05-10T07:13:59;45.72;;;16.90;;
28523;SDS011;15734;50.904;6.922;2023-05-10T07:16:25;44.38;;;17.30;;
28523;SDS011;15734;50.904;6.922;2023-05-10T07:18:51;42.92;;;16.40;;
28523;SDS011;15734;50.904;6.922;2023-05-10T07:21:17;39.55;;;17.02;;
28523;SDS011;15734;50.904;6.922;2023-05-10T07:23:43;42.70;;;17.63;;
28523;SDS011;15734;50.904;6.922;2023-05-10T07:26:09;40.35;;;16.45;;
28523;SDS011;15734;50.904;6.922;2023-05-10T07:28:35;36.72;;;15.82;;
28523;SDS011;15734;50.904;6.922;2023-05-10T07:31:02;37.92;;;15.00;;
28523;SDS011;15734;50.904;6.922;2023-05-10T07:33:28;44.08;;;18.05;;
28523;SDS011;15734;50.904;6.922;2023-05-10T07:35:53;48.58;;;17.25;;
28523;SDS011;15734;50.904;6.922;2023-05-10T07:38:19;43.42;;;17.17;;
28523;SDS011;15734;50.904;6.922;2023-05-10T07:40:44;40.42;;;15.55;;
28523;SDS011;15734;50.904;6.922;2023-05-10T07:43:10;44.70;;;16.17;;
28523;SDS011;15734;50.904;6.922;2023-05-10T07:45:35;46.78;;;17.17;;
28523;SDS011;15734;50.904;6.922;2023-05-10T07:48:01;36.70;;;16.17;;
28523;SDS011;15734;50.904;6.922;2023-05-10T07:50:27;38.53;;;14.05;;
28523;SDS011;15734;50.904;6.922;2023-05-10T07:52:52;32.22;;;12.25;;
28523;SDS011;15734;50.904;6.922;2023-05-10T07:55:18;32.83;;;12.65;;
28523;SDS011;15734;50.904;6.922;2023-05-10T07:57:46;32.35;;;11.50;;
28523;SDS011;15734;50.904;6.922;2023-05-10T08:00:12;32.00;;;12.30;;
28523;SDS011;15734;50.904;6.922;2023-05-10T08:02:41;28.30;;;11.20;;
28523;SDS011;15734;50.904;6.922;2023-05-10T08:05:07;31.80;;;10.95;;
28523;SDS011;15734;50.904;6.922;2023-05-10T08:07:32;36.13;;;13.57;;
28523;SDS011;15734;50.904;6.922;2023-05-10T08:09:58;30.75;;;10.23;;
28523;SDS011;15734;50.904;6.922;2023-05-10T08:12:24;21.25;;;8.80;;
28523;SDS011;15734;50.904;6.922;2023-05-10T08:14:49;22.20;;;8.75;;
28523;SDS011;15734;50.904;6.922;2023-05-10T08:17:15;17.27;;;7.85;;
28523;SDS011;15734;50.904;6.922;2023-05-10T08:19:40;20.58;;;8.57;;
28523;SDS011;15734;50.904;6.922;2023-05-10T08:22:06;21.92;;;8.15;;
28523;SDS011;15734;50.904;6.922;2023-05-10T08:24:31;22.80;;;8.85;;
28523;SDS011;15734;50.904;6.922;2023-05-10T08:26:57;16.70;;;8.05;;
28523;SDS011;15734;50.904;6.922;2023-05-10T08:29:23;15.88;;;8.60;;
28523;SDS011;15734;50.904;6.922;2023-05-10T08:31:48;11.60;;;6.25;;
28523;SDS011;15734;50.904;6.922;2023-05-10T08:34:14;12.07;;;5.95;;
28523;SDS011;15734;50.904;6.922;2023-05-10T08:36:39;12.38;;;5.90;;
28523;SDS011;15734;50.904;6.922;2023-05-10T08:39:05;8.27;;;4.95;;
28523;SDS011;15734;50.904;6.922;2023-05-10T08:41:31;8.10;;;4.07;;
28523;SDS011;15734;50.904;6.922;2023-05-10T08:43:59;9.68;;;3.97;;
28523;SDS011;15734;50.904;6.922;2023-05-10T08:46:30;10.13;;;4.65;;
28523;SDS011;15734;50.904;6.922;2023-05-10T08:48:58;14.63;;;6.97;;
28523;SDS011;15734;50.904;6.922;2023-05-10T08:51:27;13.82;;;6.68;;
28523;SDS011;15734;50.904;6.922;2023-05-10T08:53:59;14.30;;;6.50;;
28523;SDS011;15734;50.904;6.922;2023-05-10T08:56:24;17.83;;;7.07;;
28523;SDS011;15734;50.904;6.922;2023-05-10T08:58:51;16.73;;;8.13;;
28523;SDS011;15734;50.904;6.922;2023-05-10T09:01:16;22.85;;;8.63;;
28523;SDS011;15734;50.904;6.922;2023-05-10T09:03:43;14.85;;;7.85;;
28523;SDS011;15734;50.904;6.922;2023-05-10T09:06:11;18.38;;;7.95;;
28523;SDS011;15734;50.904;6.922;2023-05-10T09:08:38;16.15;;;7.07;;
28523;SDS011;15734;50.904;6.922;2023-05-10T09:11:04;16.55;;;8.00;;
28523;SDS011;15734;50.904;6.922;2023-05-10T09:13:30;16.45;;;7.82;;
28523;SDS011;15734;50.904;6.922;2023-05-10T09:15:57;16.20;;;7.47;;
28523;SDS011;15734;50.904;6.922;2023-05-10T09:18:23;13.00;;;6.80;;
28523;SDS011;15734;50.904;6.922;2023-05-10T09:20:49;14.85;;;6.28;;
28523;SDS011;15734;50.904;6.922;2023-05-10T09:23:14;11.73;;;6.72;;
28523;SDS011;15734;50.904;6.922;2023-05-10T09:25:43;12.55;;;6.20;;
28523;SDS011;15734;50.904;6.922;2023-05-10T09:28:09;9.93;;;5.30;;
28523;SDS011;15734;50.904;6.922;2023-05-10T09:30:35;11.38;;;5.60;;
28523;SDS011;15734;50.904;6.922;2023-05-10T09:33:01;8.98;;;4.55;;
28523;SDS011;15734;50.904;6.922;2023-05-10T09:35:28;7.45;;;3.80;;
28523;SDS011;15734;50.904;6.922;2023-05-10T09:37:56;7.90;;;3.90;;
28523;SDS011;15734;50.904;6.922;2023-05-10T09:40:27;10.60;;;3.85;;
28523;SDS011;15734;50.904;6.922;2023-05-10T09:42:58;11.15;;;4.35;;
28523;SDS011;15734;50.904;6.922;2023-05-10T09:45:35;16.17;;;5.68;;
28523;SDS011;15734;50.904;6.922;2023-05-10T09:48:01;17.50;;;6.57;;
28523;SDS011;15734;50.904;6.922;2023-05-10T09:50:28;17.33;;;7.25;;
28523;SDS011;15734;50.904;6.922;2023-05-10T09:53:01;15.85;;;7.60;;
28523;SDS011;15734;50.904;6.922;2023-05-10T09:58:04;25.60;;;10.15;;
28523;SDS011;15734;50.904;6.922;2023-05-10T10:00:35;29.48;;;9.57;;
28523;SDS011;15734;50.904;6.922;2023-05-10T10:03:01;21.98;;;10.00;;
28523;SDS011;15734;50.904;6.922;2023-05-10T10:05:28;23.67;;;9.43;;
28523;SDS011;15734;50.904;6.922;2023-05-10T10:07:55;16.40;;;8.48;;
28523;SDS011;15734;50.904;6.922;2023-05-10T10:10:24;18.13;;;7.75;;
28523;SDS011;15734;50.904;6.922;2023-05-10T10:12:51;19.70;;;7.90;;
28523;SDS011;15734;50.904;6.922;2023-05-10T10:15:17;19.13;;;7.50;;
28523;SDS011;15734;50.904;6.922;2023-05-10T10:17:43;14.27;;;6.65;;
28523;SDS011;15734;50.904;6.922;2023-05-10T10:20:10;14.43;;;6.88;;
28523;SDS011;15734;50.904;6.922;2023-05-10T10:22:36;19.85;;;6.75;;
28523;SDS011;15734;50.904;6.922;2023-05-10T10:25:02;10.25;;;6.13;;
28523;SDS011;15734;50.904;6.922;2023-05-10T10:35:17;16.00;;;5.85;;
28523;SDS011;15734;50.904;6.922;2023-05-10T10:37:44;14.25;;;6.32;;
28523;SDS011;15734;50.904;6.922;2023-05-10T10:40:30;17.52;;;7.00;;
28523;SDS011;15734;50.904;6.922;2023-05-10T10:42:57;17.33;;;7.25;;
28523;SDS011;15734;50.904;6.922;2023-05-10T10:45:24;15.50;;;6.97;;
28523;SDS011;15734;50.904;6.922;2023-05-10T10:50:45;15.70;;;6.78;;
28523;SDS011;15734;50.904;6.922;2023-05-10T10:53:11;16.83;;;6.38;;
28523;SDS011;15734;50.904;6.922;2023-05-10T10:55:45;9.90;;;5.50;;
28523;SDS011;15734;50.904;6.922;2023-05-10T10:58:16;17.33;;;5.82;;
28523;SDS011;15734;50.904;6.922;2023-05-10T11:01:08;12.40;;;5.60;;
28523;SDS011;15734;50.904;6.922;2023-05-10T11:03:56;11.65;;;4.70;;
28523;SDS011;15734;50.904;6.922;2023-05-10T11:06:33;9.90;;;4.40;;
28523;SDS011;15734;50.904;6.922;2023-05-10T11:09:09;9.48;;;4.47;;
28523;SDS011;15734;50.904;6.922;2023-05-10T11:11:48;12.05;;;4.65;;
28523;SDS011;15734;50.904;6.922;2023-05-10T11:14:17;10.02;;;4.78;;
28523;SDS011;15734;50.904;6.922;2023-05-10T11:16:45;7.10;;;3.25;;
28523;SDS011;15734;50.904;6.922;2023-05-10T11:19:11;7.78;;;4.00;;
28523;SDS011;15734;50.904;6.922;2023-05-10T11:24:36;5.55;;;2.50;;
28523;SDS011;15734;50.904;6.922;2023-05-10T11:27:02;5.38;;;3.03;;
28523;SDS011;15734;50.904;6.922;2023-05-10T11:29:28;4.15;;;2.42;;
28523;SDS011;15734;50.904;6.922;2023-05-10T11:31:53;7.05;;;3.10;;
28523;SDS011;15734;50.904;6.922;2023-05-10T11:34:26;5.07;;;2.90;;
28523;SDS011;15734;50.904;6.922;2023-05-10T11:36:54;11.55;;;3.03;;
28523;SDS011;15734;50.904;6.922;2023-05-10T11:39:20;2.55;;;1.90;;
28523;SDS011;15734;50.904;6.922;2023-05-10T11:41:49;4.45;;;2.10;;
28523;SDS011;15734;50.904;6.922;2023-05-10T11:44:15;3.42;;;2.20;;
28523;SDS011;15734;50.904;6.922;2023-05-10T11:46:41;4.88;;;2.10;;
28523;SDS011;15734;50.904;6.922;2023-05-10T11:49:07;4.10;;;2.10;;
28523;SDS011;15734;50.904;6.922;2023-05-10T11:51:35;2.90;;;2.35;;
28523;SDS011;15734;50.904;6.922;2023-05-10T11:54:04;5.18;;;1.90;;
28523;SDS011;15734;50.904;6.922;2023-05-10T11:56:32;2.47;;;1.60;;
28523;SDS011;15734;50.904;6.922;2023-05-10T11:58:57;2.85;;;1.60;;
28523;SDS011;15734;50.904;6.922;2023-05-10T12:01:25;3.95;;;1.40;;
28523;SDS011;15734;50.904;6.922;2023-05-10T12:03:52;1.90;;;1.23;;
28523;SDS011;15734;50.904;6.922;2023-05-10T12:06:19;3.67;;;1.55;;
28523;SDS011;15734;50.904;6.922;2023-05-10T12:08:46;2.53;;;1.35;;
28523;SDS011;15734;50.904;6.922;2023-05-10T12:11:12;1.88;;;1.40;;
28523;SDS011;15734;50.904;6.922;2023-05-10T12:13:42;1.92;;;1.42;;
28523;SDS011;15734;50.904;6.922;2023-05-10T12:18:44;1.98;;;1.50;;
28523;SDS011;15734;50.904;6.922;2023-05-10T12:21:13;3.95;;;1.65;;
28523;SDS011;15734;50.904;6.922;2023-05-10T12:23:40;2.92;;;1.27;;
28523;SDS011;15734;50.904;6.922;2023-05-10T12:26:06;3.10;;;1.75;;
28523;SDS011;15734;50.904;6.922;2023-05-10T12:28:34;7.97;;;1.75;;
28523;SDS011;15734;50.904;6.922;2023-05-10T12:31:00;3.25;;;1.80;;
28523;SDS011;15734;50.904;6.922;2023-05-10T12:33:27;1.60;;;1.35;;
28523;SDS011;15734;50.904;6.922;2023-05-10T12:36:01;2.10;;;1.40;;
28523;SDS011;15734;50.904;6.922;2023-05-10T12:38:34;1.73;;;0.90;;
28523;SDS011;15734;50.904;6.922;2023-05-10T12:41:03;3.90;;;0.60;;
28523;SDS011;15734;50.904;6.922;2023-05-10T12:43:33;1.77;;;0.95;;
28523;SDS011;15734;50.904;6.922;2023-05-10T12:46:09;1.38;;;1.10;;
28523;SDS011;15734;50.904;6.922;2023-05-10T12:48:35;1.23;;;1.02;;
28523;SDS011;15734;50.904;6.922;2023-05-10T12:51:02;2.40;;;1.10;;
28523;SDS011;15734;50.904;6.922;2023-05-10T12:53:28;1.20;;;1.10;;
28523;SDS011;15734;50.904;6.922;2023-05-10T12:55:54;2.70;;;1.10;;
28523;SDS011;15734;50.904;6.922;2023-05-10T12:58:19;3.08;;;1.73;;
28523;SDS011;15734;50.904;6.922;2023-05-10T13:00:45;1.10;;;1.00;;
28523;SDS011;15734;50.904;6.922;2023-05-10T13:03:11;4.25;;;1.05;;
28523;SDS011;15734;50.904;6.922;2023-05-10T13:05:36;2.88;;;1.27;;
28523;SDS011;15734;50.904;6.922;2023-05-10T13:08:02;1.98;;;1.30;;
28523;SDS011;15734;50.904;6.922;2023-05-10T13:10:31;1.48;;;1.10;;
28523;SDS011;15734;50.904;6.922;2023-05-10T13:12:57;2.00;;;1.13;;
28523;SDS011;15734;50.904;6.922;2023-05-10T13:15:23;2.28;;;1.13;;
28523;SDS011;15734;50.904;6.922;2023-05-10T13:17:49;2.50;;;2.05;;
28523;SDS011;15734;50.904;6.922;2023-05-10T13:20:15;1.23;;;1.13;;
28523;SDS011;15734;50.904;6.922;2023-05-10T13:22:42;1.52;;;1.02;;
28523;SDS011;15734;50.904;6.922;2023-05-10T13:25:08;2.08;;;1.40;;
28523;SDS011;15734;50.904;6.922;2023-05-10T13:27:34;1.75;;;1.02;;
28523;SDS011;15734;50.904;6.922;2023-05-10T13:30:00;5.05;;;1.42;;
28523;SDS011;15734;50.904;6.922;2023-05-10T13:32:28;1.20;;;1.10;;
28523;SDS011;15734;50.904;6.922;2023-05-10T13:34:54;2.78;;;1.10;;
28523;SDS011;15734;50.904;6.922;2023-05-10T13:37:20;2.80;;;1.02;;
28523;SDS011;15734;50.904;6.922;2023-05-10T13:39:46;4.97;;;0.80;;
28523;SDS011;15734;50.904;6.922;2023-05-10T13:42:12;0.70;;;0.70;;
28523;SDS011;15734;50.904;6.922;2023-05-10T13:44:37;3.10;;;1.15;;
28523;SDS011;15734;50.904;6.922;2023-05-10T13:47:03;2.28;;;1.15;;
28523;SDS011;15734;50.904;6.922;2023-05-10T13:49:29;0.77;;;0.73;;
28523;SDS011;15734;50.904;6.922;2023-05-10T13:51:55;3.70;;;1.00;;
28523;SDS011;15734;50.904;6.922;2023-05-10T13:54:20;2.05;;;0.80;;
28523;SDS011;15734;50.904;6.922;2023-05-10T13:56:47;0.55;;;0.50;;
28523;SDS011;15734;50.904;6.922;2023-05-10T13:59:13;0.82;;;0.63;;
28523;SDS011;15734;50.904;6.922;2023-05-10T14:01:39;3.42;;;1.25;;
28523;SDS011;15734;50.904;6.922;2023-05-10T14:04:08;0.63;;;0.57;;
28523;SDS011;15734;50.904;6.922;2023-05-10T14:06:35;1.30;;;0.70;;
28523;SDS011;15734;50.904;6.922;2023-05-10T14:09:01;1.52;;;0.88;;
28523;SDS011;15734;50.904;6.922;2023-05-10T14:11:27;0.73;;;0.73;;
28523;SDS011;15734;50.904;6.922;2023-05-10T14:13:53;2.05;;;0.88;;
28523;SDS011;15734;50.904;6.922;2023-05-10T14:16:19;0.77;;;0.57;;
28523;SDS011;15734;50.904;6.922;2023-05-10T14:18:45;1.48;;;0.70;;
28523;SDS011;15734;50.904;6.922;2023-05-10T14:21:11;2.35;;;0.90;;
28523;SDS011;15734;50.904;6.922;2023-05-10T14:23:37;1.05;;;0.50;;
28523;SDS011;15734;50.904;6.922;2023-05-10T14:26:02;3.38;;;0.77;;
28523;SDS011;15734;50.904;6.922;2023-05-10T14:28:28;0.60;;;0.60;;
28523;SDS011;15734;50.904;6.922;2023-05-10T14:30:54;2.15;;;0.85;;
28523;SDS011;15734;50.904;6.922;2023-05-10T14:33:19;3.85;;;0.57;;
28523;SDS011;15734;50.904;6.922;2023-05-10T14:35:45;4.30;;;0.70;;
28523;SDS011;15734;50.904;6.922;2023-05-10T14:38:11;0.98;;;0.80;;
28523;SDS011;15734;50.904;6.922;2023-05-10T14:40:37;4.53;;;1.02;;
28523;SDS011;15734;50.904;6.922;2023-05-10T14:43:03;2.28;;;0.63;;
28523;SDS011;15734;50.904;6.922;2023-05-10T14:45:28;1.45;;;1.10;;
28523;SDS011;15734;50.904;6.922;2023-05-10T14:47:54;3.22;;;0.90;;
28523;SDS011;15734;50.904;6.922;2023-05-10T14:50:19;1.48;;;0.88;;
28523;SDS011;15734;50.904;6.922;2023-05-10T14:52:45;0.60;;;0.60;;
28523;SDS011;15734;50.904;6.922;2023-05-10T14:55:11;2.92;;;0.80;;
28523;SDS011;15734;50.904;6.922;2023-05-10T14:57:36;2.58;;;1.00;;
28523;SDS011;15734;50.904;6.922;2023-05-10T15:00:03;2.40;;;0.80;;